sensor_id;sensor_type;location;lat;lon;timestamp;P1;durP1;ratioP1;P2;durP2;ratioP2
58384;SDS011;44185;47.844;8.966;2024-03-23T00:55:16;5.33;;;3.67;;
58384;SDS011;44185;47.844;8.966;2024-03-23T00:57:42;6.97;;;4.03;;
58384;SDS011;44185;47.844;8.966;2024-03-23T01:00:07;5.28;;;3.50;;
58384;SDS011;44185;47.844;8.966;2024-03-23T01:02:33;6.78;;;3.65;;
58384;SDS011;44185;47.844;8.966;2024-03-23T01:04:58;10.10;;;4.30;;
58384;SDS011;44185;47.844;8.966;2024-03-23T01:07:24;5.47;;;3.33;;
58384;SDS011;44185;47.844;8.966;2024-03-23T01:09:50;5.50;;;3.53;;
58384;SDS011;44185;47.844;8.966;2024-03-23T01:12:16;9.10;;;3.70;;
58384;SDS011;44185;47.844;8.966;2024-03-23T01:14:42;4.70;;;3.38;;
58384;SDS011;44185;47.844;8.966;2024-03-23T01:17:07;6.22;;;3.42;;
58384;SDS011;44185;47.844;8.966;2024-03-23T01:19:32;4.82;;;3.30;;
58384;SDS011;44185;47.844;8.966;2024-03-23T01:21:58;10.88;;;3.97;;
58384;SDS011;44185;47.844;8.966;2024-03-23T01:24:23;7.13;;;3.40;;
58384;SDS011;44185;47.844;8.966;2024-03-23T01:26:50;6.70;;;3.70;;
58384;SDS011;44185;47.844;8.966;2024-03-23T01:29:15;5.43;;;3.58;;
58384;SDS011;44185;47.844;8.966;2024-03-23T01:31:41;5.00;;;3.40;;
58384;SDS011;44185;47.844;8.966;2024-03-23T01:34:06;5.53;;;3.58;;
58384;SDS011;44185;47.844;8.966;2024-03-23T01:36:32;6.63;;;3.50;;
58384;SDS011;44185;47.844;8.966;2024-03-23T01:38:57;5.55;;;3.40;;
58384;SDS011;44185;47.844;8.966;2024-03-23T01:41:23;6.90;;;3.67;;
58384;SDS011;44185;47.844;8.966;2024-03-23T01:43:50;6.53;;;3.45;;
58384;SDS011;44185;47.844;8.966;2024-03-23T01:46:16;6.30;;;3.85;;
58384;SDS011;44185;47.844;8.966;2024-03-23T01:48:42;7.28;;;3.05;;
58384;SDS011;44185;47.844;8.966;2024-03-23T01:51:07;9.02;;;3.90;;
58384;SDS011;44185;47.844;8.966;2024-03-23T01:53:33;6.53;;;3.42;;
58384;SDS011;44185;47.844;8.966;2024-03-23T01:55:58;5.03;;;3.45;;
58384;SDS011;44185;47.844;8.966;2024-03-23T01:58:24;4.55;;;3.60;;
58384;SDS011;44185;47.844;8.966;2024-03-23T02:00:51;5.82;;;3.88;;
58384;SDS011;44185;47.844;8.966;2024-03-23T02:03:22;6.50;;;3.70;;
58384;SDS011;44185;47.844;8.966;2024-03-23T02:05:48;6.30;;;3.60;;
58384;SDS011;44185;47.844;8.966;2024-03-23T02:08:14;7.15;;;3.60;;
58384;SDS011;44185;47.844;8.966;2024-03-23T02:10:39;8.75;;;3.95;;
58384;SDS011;44185;47.844;8.966;2024-03-23T02:13:05;8.02;;;3.45;;
58384;SDS011;44185;47.844;8.966;2024-03-23T02:15:30;6.15;;;3.75;;
58384;SDS011;44185;47.844;8.966;2024-03-23T02:17:57;7.43;;;3.60;;
58384;SDS011;44185;47.844;8.966;2024-03-23T02:20:22;5.63;;;3.85;;
58384;SDS011;44185;47.844;8.966;2024-03-23T02:22:51;6.22;;;3.70;;
58384;SDS011;44185;47.844;8.966;2024-03-23T02:25:16;4.18;;;3.30;;
58384;SDS011;44185;47.844;8.966;2024-03-23T02:27:42;6.55;;;3.50;;
58384;SDS011;44185;47.844;8.966;2024-03-23T02:30:08;5.15;;;3.60;;
58384;SDS011;44185;47.844;8.966;2024-03-23T02:32:33;5.68;;;3.70;;
58384;SDS011;44185;47.844;8.966;2024-03-23T02:34:59;5.50;;;3.60;;
58384;SDS011;44185;47.844;8.966;2024-03-23T02:37:24;6.30;;;3.30;;
58384;SDS011;44185;47.844;8.966;2024-03-23T02:39:51;6.47;;;3.83;;
58384;SDS011;44185;47.844;8.966;2024-03-23T02:42:16;7.57;;;4.10;;
58384;SDS011;44185;47.844;8.966;2024-03-23T02:44:42;6.38;;;3.58;;
58384;SDS011;44185;47.844;8.966;2024-03-23T02:47:07;5.25;;;3.70;;
58384;SDS011;44185;47.844;8.966;2024-03-23T02:49:33;8.10;;;3.75;;
58384;SDS011;44185;47.844;8.966;2024-03-23T02:51:58;7.72;;;4.00;;
58384;SDS011;44185;47.844;8.966;2024-03-23T02:54:23;5.30;;;3.58;;
58384;SDS011;44185;47.844;8.966;2024-03-23T02:56:50;6.82;;;3.60;;
58384;SDS011;44185;47.844;8.966;2024-03-23T02:59:16;6.60;;;3.70;;
58384;SDS011;44185;47.844;8.966;2024-03-23T03:01:42;6.68;;;3.78;;
58384;SDS011;44185;47.844;8.966;2024-03-23T03:04:07;6.07;;;3.90;;
58384;SDS011;44185;47.844;8.966;2024-03-23T03:06:33;7.20;;;4.10;;
58384;SDS011;44185;47.844;8.966;2024-03-23T03:08:58;5.88;;;3.80;;
58384;SDS011;44185;47.844;8.966;2024-03-23T03:11:23;6.30;;;4.30;;
58384;SDS011;44185;47.844;8.966;2024-03-23T03:13:50;7.07;;;4.22;;
58384;SDS011;44185;47.844;8.966;2024-03-23T03:16:16;7.40;;;4.13;;
58384;SDS011;44185;47.844;8.966;2024-03-23T03:18:42;8.32;;;4.35;;
58384;SDS011;44185;47.844;8.966;2024-03-23T03:21:07;7.68;;;4.35;;
58384;SDS011;44185;47.844;8.966;2024-03-23T03:23:33;8.50;;;4.20;;
58384;SDS011;44185;47.844;8.966;2024-03-23T03:25:58;8.10;;;4.00;;
58384;SDS011;44185;47.844;8.966;2024-03-23T03:28:23;8.18;;;4.55;;
58384;SDS011;44185;47.844;8.966;2024-03-23T03:30:50;8.70;;;4.60;;
58384;SDS011;44185;47.844;8.966;2024-03-23T03:33:16;6.47;;;4.10;;
58384;SDS011;44185;47.844;8.966;2024-03-23T03:35:42;10.05;;;4.55;;
58384;SDS011;44185;47.844;8.966;2024-03-23T03:38:07;9.68;;;4.55;;
58384;SDS011;44185;47.844;8.966;2024-03-23T03:40:32;6.93;;;4.18;;
58384;SDS011;44185;47.844;8.966;2024-03-23T03:42:58;8.02;;;4.22;;
58384;SDS011;44185;47.844;8.966;2024-03-23T03:45:23;11.30;;;4.80;;
58384;SDS011;44185;47.844;8.966;2024-03-23T03:47:50;10.65;;;5.10;;
58384;SDS011;44185;47.844;8.966;2024-03-23T03:50:15;8.00;;;4.43;;
58384;SDS011;44185;47.844;8.966;2024-03-23T03:52:41;10.80;;;5.20;;
58384;SDS011;44185;47.844;8.966;2024-03-23T03:55:12;9.07;;;5.10;;
58384;SDS011;44185;47.844;8.966;2024-03-23T03:57:38;10.88;;;4.88;;
58384;SDS011;44185;47.844;8.966;2024-03-23T04:00:04;8.68;;;4.68;;
58384;SDS011;44185;47.844;8.966;2024-03-23T04:02:30;9.90;;;4.65;;
58384;SDS011;44185;47.844;8.966;2024-03-23T04:04:57;10.80;;;5.28;;
58384;SDS011;44185;47.844;8.966;2024-03-23T04:07:23;13.32;;;5.22;;
58384;SDS011;44185;47.844;8.966;2024-03-23T04:09:48;12.48;;;5.70;;
58384;SDS011;44185;47.844;8.966;2024-03-23T04:12:14;14.18;;;5.80;;
58384;SDS011;44185;47.844;8.966;2024-03-23T04:14:39;14.65;;;5.85;;
58384;SDS011;44185;47.844;8.966;2024-03-23T04:17:04;14.93;;;5.85;;
58384;SDS011;44185;47.844;8.966;2024-03-23T04:19:30;14.25;;;5.22;;
58384;SDS011;44185;47.844;8.966;2024-03-23T04:21:57;14.93;;;6.38;;
58384;SDS011;44185;47.844;8.966;2024-03-23T04:24:22;11.07;;;4.22;;
58384;SDS011;44185;47.844;8.966;2024-03-23T04:26:48;10.15;;;4.60;;
58384;SDS011;44185;47.844;8.966;2024-03-23T04:29:13;10.38;;;4.80;;
58384;SDS011;44185;47.844;8.966;2024-03-23T04:31:38;12.43;;;5.30;;
58384;SDS011;44185;47.844;8.966;2024-03-23T04:34:04;8.07;;;4.70;;
58384;SDS011;44185;47.844;8.966;2024-03-23T04:36:29;12.15;;;4.78;;
58384;SDS011;44185;47.844;8.966;2024-03-23T04:38:58;10.32;;;4.68;;
58384;SDS011;44185;47.844;8.966;2024-03-23T04:41:23;8.15;;;4.47;;
58384;SDS011;44185;47.844;8.966;2024-03-23T04:43:49;10.57;;;4.80;;
58384;SDS011;44185;47.844;8.966;2024-03-23T04:46:14;8.35;;;4.15;;
58384;SDS011;44185;47.844;8.966;2024-03-23T04:48:40;7.82;;;4.20;;
58384;SDS011;44185;47.844;8.966;2024-03-23T04:51:05;8.55;;;4.50;;
58384;SDS011;44185;47.844;8.966;2024-03-23T04:53:31;8.50;;;4.78;;
58384;SDS011;44185;47.844;8.966;2024-03-23T04:55:58;10.77;;;5.70;;
58384;SDS011;44185;47.844;8.966;2024-03-23T04:58:23;10.00;;;5.07;;
58384;SDS011;44185;47.844;8.966;2024-03-23T05:00:52;11.70;;;5.13;;
58384;SDS011;44185;47.844;8.966;2024-03-23T05:03:19;8.75;;;5.30;;
58384;SDS011;44185;47.844;8.966;2024-03-23T05:05:44;9.98;;;4.95;;
58384;SDS011;44185;47.844;8.966;2024-03-23T05:08:09;8.45;;;4.70;;
58384;SDS011;44185;47.844;8.966;2024-03-23T05:10:35;7.55;;;4.20;;
58384;SDS011;44185;47.844;8.966;2024-03-23T05:13:02;8.93;;;4.25;;
58384;SDS011;44185;47.844;8.966;2024-03-23T05:15:27;7.93;;;4.55;;
58384;SDS011;44185;47.844;8.966;2024-03-23T05:17:52;6.30;;;4.38;;
58384;SDS011;44185;47.844;8.966;2024-03-23T05:20:18;9.77;;;4.75;;
58384;SDS011;44185;47.844;8.966;2024-03-23T05:22:44;6.30;;;4.07;;
58384;SDS011;44185;47.844;8.966;2024-03-23T05:25:09;7.60;;;4.10;;
58384;SDS011;44185;47.844;8.966;2024-03-23T05:27:35;6.82;;;4.00;;
58384;SDS011;44185;47.844;8.966;2024-03-23T05:30:02;8.95;;;4.13;;
58384;SDS011;44185;47.844;8.966;2024-03-23T05:32:27;8.43;;;4.32;;
58384;SDS011;44185;47.844;8.966;2024-03-23T05:34:53;11.43;;;4.70;;
58384;SDS011;44185;47.844;8.966;2024-03-23T05:37:19;7.97;;;4.32;;
58384;SDS011;44185;47.844;8.966;2024-03-23T05:39:44;6.68;;;4.18;;
58384;SDS011;44185;47.844;8.966;2024-03-23T05:42:10;7.40;;;4.15;;
58384;SDS011;44185;47.844;8.966;2024-03-23T05:44:35;9.02;;;4.43;;
58384;SDS011;44185;47.844;8.966;2024-03-23T05:47:02;7.30;;;4.03;;
58384;SDS011;44185;47.844;8.966;2024-03-23T05:49:27;6.50;;;3.95;;
58384;SDS011;44185;47.844;8.966;2024-03-23T05:51:53;9.35;;;4.63;;
58384;SDS011;44185;47.844;8.966;2024-03-23T05:54:18;6.88;;;4.25;;
58384;SDS011;44185;47.844;8.966;2024-03-23T05:56:43;9.18;;;4.50;;
58384;SDS011;44185;47.844;8.966;2024-03-23T05:59:09;6.57;;;4.15;;
58384;SDS011;44185;47.844;8.966;2024-03-23T06:01:34;8.18;;;4.30;;
58384;SDS011;44185;47.844;8.966;2024-03-23T06:04:01;10.35;;;4.38;;
58384;SDS011;44185;47.844;8.966;2024-03-23T06:06:27;7.63;;;4.30;;
58384;SDS011;44185;47.844;8.966;2024-03-23T06:08:52;10.00;;;4.38;;
58384;SDS011;44185;47.844;8.966;2024-03-23T06:11:18;6.55;;;3.90;;
58384;SDS011;44185;47.844;8.966;2024-03-23T06:13:43;7.65;;;3.90;;
58384;SDS011;44185;47.844;8.966;2024-03-23T06:16:08;4.65;;;3.55;;
58384;SDS011;44185;47.844;8.966;2024-03-23T06:18:34;6.55;;;4.15;;
58384;SDS011;44185;47.844;8.966;2024-03-23T06:21:01;6.10;;;3.50;;
58384;SDS011;44185;47.844;8.966;2024-03-23T06:23:27;7.43;;;3.90;;
58384;SDS011;44185;47.844;8.966;2024-03-23T06:25:52;4.85;;;3.03;;
58384;SDS011;44185;47.844;8.966;2024-03-23T06:28:18;5.30;;;3.70;;
58384;SDS011;44185;47.844;8.966;2024-03-23T06:30:43;8.63;;;4.10;;
58384;SDS011;44185;47.844;8.966;2024-03-23T06:33:08;6.93;;;3.90;;
58384;SDS011;44185;47.844;8.966;2024-03-23T06:35:34;7.40;;;3.60;;
58384;SDS011;44185;47.844;8.966;2024-03-23T06:38:01;6.68;;;3.63;;
58384;SDS011;44185;47.844;8.966;2024-03-23T06:40:27;7.05;;;3.80;;
58384;SDS011;44185;47.844;8.966;2024-03-23T06:42:52;5.95;;;3.55;;
58384;SDS011;44185;47.844;8.966;2024-03-23T06:45:18;6.88;;;3.80;;
58384;SDS011;44185;47.844;8.966;2024-03-23T06:47:43;8.88;;;3.85;;
58384;SDS011;44185;47.844;8.966;2024-03-23T06:50:08;5.75;;;3.60;;
58384;SDS011;44185;47.844;8.966;2024-03-23T06:52:34;5.75;;;3.40;;
58384;SDS011;44185;47.844;8.966;2024-03-23T06:55:01;7.55;;;3.50;;
58384;SDS011;44185;47.844;8.966;2024-03-23T06:57:27;4.55;;;2.97;;
58384;SDS011;44185;47.844;8.966;2024-03-23T06:59:52;5.13;;;3.17;;
58384;SDS011;44185;47.844;8.966;2024-03-23T07:02:18;4.85;;;2.95;;
58384;SDS011;44185;47.844;8.966;2024-03-23T07:04:43;6.53;;;3.08;;
58384;SDS011;44185;47.844;8.966;2024-03-23T07:07:09;4.30;;;2.50;;
58384;SDS011;44185;47.844;8.966;2024-03-23T07:09:34;34.72;;;18.58;;
58384;SDS011;44185;47.844;8.966;2024-03-23T07:12:01;7.57;;;4.28;;
58384;SDS011;44185;47.844;8.966;2024-03-23T07:14:27;10.32;;;6.00;;
58384;SDS011;44185;47.844;8.966;2024-03-23T07:16:52;3.60;;;2.83;;
58384;SDS011;44185;47.844;8.966;2024-03-23T07:19:18;6.22;;;3.40;;
58384;SDS011;44185;47.844;8.966;2024-03-23T07:21:43;6.30;;;3.15;;
58384;SDS011;44185;47.844;8.966;2024-03-23T07:24:09;4.63;;;3.10;;
58384;SDS011;44185;47.844;8.966;2024-03-23T07:26:34;3.55;;;2.90;;
58384;SDS011;44185;47.844;8.966;2024-03-23T07:29:01;4.15;;;3.15;;
58384;SDS011;44185;47.844;8.966;2024-03-23T07:31:27;4.43;;;2.58;;
58384;SDS011;44185;47.844;8.966;2024-03-23T07:33:52;5.63;;;2.67;;
58384;SDS011;44185;47.844;8.966;2024-03-23T07:36:18;5.00;;;2.92;;
58384;SDS011;44185;47.844;8.966;2024-03-23T07:38:43;4.18;;;2.22;;
58384;SDS011;44185;47.844;8.966;2024-03-23T07:41:10;2.80;;;2.50;;
58384;SDS011;44185;47.844;8.966;2024-03-23T07:43:36;4.20;;;2.70;;
58384;SDS011;44185;47.844;8.966;2024-03-23T07:46:04;7.15;;;3.58;;
58384;SDS011;44185;47.844;8.966;2024-03-23T07:48:30;5.32;;;3.75;;
58384;SDS011;44185;47.844;8.966;2024-03-23T07:50:57;6.15;;;3.03;;
58384;SDS011;44185;47.844;8.966;2024-03-23T07:53:23;3.13;;;2.33;;
58384;SDS011;44185;47.844;8.966;2024-03-23T07:55:52;3.88;;;1.58;;
58384;SDS011;44185;47.844;8.966;2024-03-23T07:58:19;1.65;;;1.20;;
58384;SDS011;44185;47.844;8.966;2024-03-23T08:00:44;0.95;;;0.82;;
58384;SDS011;44185;47.844;8.966;2024-03-23T08:03:11;0.73;;;0.68;;
58384;SDS011;44185;47.844;8.966;2024-03-23T08:05:36;1.40;;;1.40;;
58384;SDS011;44185;47.844;8.966;2024-03-23T08:08:02;0.50;;;0.50;;
58384;SDS011;44185;47.844;8.966;2024-03-23T08:10:27;1.13;;;0.52;;
58384;SDS011;44185;47.844;8.966;2024-03-23T08:12:53;0.35;;;0.32;;
58384;SDS011;44185;47.844;8.966;2024-03-23T08:15:18;1.10;;;0.90;;
58384;SDS011;44185;47.844;8.966;2024-03-23T08:17:44;1.30;;;0.90;;
58384;SDS011;44185;47.844;8.966;2024-03-23T08:20:11;2.22;;;0.63;;
58384;SDS011;44185;47.844;8.966;2024-03-23T08:22:37;0.57;;;0.47;;
58384;SDS011;44185;47.844;8.966;2024-03-23T08:25:02;1.65;;;1.02;;
58384;SDS011;44185;47.844;8.966;2024-03-23T08:27:28;0.73;;;0.70;;
58384;SDS011;44185;47.844;8.966;2024-03-23T08:29:54;1.20;;;0.90;;
58384;SDS011;44185;47.844;8.966;2024-03-23T08:32:19;0.57;;;0.30;;
58384;SDS011;44185;47.844;8.966;2024-03-23T08:34:44;1.65;;;0.63;;
58384;SDS011;44185;47.844;8.966;2024-03-23T08:37:11;0.85;;;0.75;;
58384;SDS011;44185;47.844;8.966;2024-03-23T08:39:37;0.50;;;0.47;;
58384;SDS011;44185;47.844;8.966;2024-03-23T08:42:02;0.20;;;0.20;;
58384;SDS011;44185;47.844;8.966;2024-03-23T08:44:28;1.67;;;0.40;;
58384;SDS011;44185;47.844;8.966;2024-03-23T08:46:55;0.20;;;0.20;;
58384;SDS011;44185;47.844;8.966;2024-03-23T08:49:21;0.10;;;0.10;;
58384;SDS011;44185;47.844;8.966;2024-03-23T08:51:46;0.38;;;0.10;;
58384;SDS011;44185;47.844;8.966;2024-03-23T08:54:13;0.20;;;0.20;;
58384;SDS011;44185;47.844;8.966;2024-03-23T08:56:38;0.10;;;0.10;;
58384;SDS011;44185;47.844;8.966;2024-03-23T08:59:04;0.13;;;0.13;;
58384;SDS011;44185;47.844;8.966;2024-03-23T09:01:29;0.28;;;0.13;;
58384;SDS011;44185;47.844;8.966;2024-03-23T09:03:55;1.75;;;0.30;;
58384;SDS011;44185;47.844;8.966;2024-03-23T09:06:20;1.38;;;0.50;;
58384;SDS011;44185;47.844;8.966;2024-03-23T09:08:46;0.90;;;0.40;;
58384;SDS011;44185;47.844;8.966;2024-03-23T09:11:13;0.50;;;0.50;;
58384;SDS011;44185;47.844;8.966;2024-03-23T09:13:39;0.35;;;0.35;;
58384;SDS011;44185;47.844;8.966;2024-03-23T09:16:05;1.00;;;1.00;;
58384;SDS011;44185;47.844;8.966;2024-03-23T09:18:31;1.58;;;0.82;;
58384;SDS011;44185;47.844;8.966;2024-03-23T09:20:58;2.60;;;1.75;;
58384;SDS011;44185;47.844;8.966;2024-03-23T09:23:23;9.02;;;3.60;;
58384;SDS011;44185;47.844;8.966;2024-03-23T09:25:49;8.93;;;4.47;;
58384;SDS011;44185;47.844;8.966;2024-03-23T09:28:15;4.90;;;2.80;;
58384;SDS011;44185;47.844;8.966;2024-03-23T09:30:41;2.85;;;1.75;;
58384;SDS011;44185;47.844;8.966;2024-03-23T09:33:06;6.68;;;2.95;;
58384;SDS011;44185;47.844;8.966;2024-03-23T09:35:32;5.50;;;2.63;;
58384;SDS011;44185;47.844;8.966;2024-03-23T09:38:01;3.45;;;1.55;;
58384;SDS011;44185;47.844;8.966;2024-03-23T09:40:27;2.72;;;1.63;;
58384;SDS011;44185;47.844;8.966;2024-03-23T09:42:52;4.53;;;2.13;;
58384;SDS011;44185;47.844;8.966;2024-03-23T09:45:21;6.75;;;4.78;;
58384;SDS011;44185;47.844;8.966;2024-03-23T09:47:47;4.20;;;2.88;;
58384;SDS011;44185;47.844;8.966;2024-03-23T09:50:13;4.63;;;2.38;;
58384;SDS011;44185;47.844;8.966;2024-03-23T09:52:38;2.58;;;1.55;;
58384;SDS011;44185;47.844;8.966;2024-03-23T09:55:04;2.95;;;1.67;;
58384;SDS011;44185;47.844;8.966;2024-03-23T09:57:30;1.70;;;1.43;;
58384;SDS011;44185;47.844;8.966;2024-03-23T09:59:55;3.25;;;1.50;;
58384;SDS011;44185;47.844;8.966;2024-03-23T10:02:22;3.08;;;1.38;;
58384;SDS011;44185;47.844;8.966;2024-03-23T10:04:48;1.55;;;1.02;;
58384;SDS011;44185;47.844;8.966;2024-03-23T10:07:14;4.60;;;1.60;;
58384;SDS011;44185;47.844;8.966;2024-03-23T10:09:40;2.53;;;1.45;;
58384;SDS011;44185;47.844;8.966;2024-03-23T10:12:09;1.65;;;1.50;;
58384;SDS011;44185;47.844;8.966;2024-03-23T10:14:35;3.83;;;1.63;;
58384;SDS011;44185;47.844;8.966;2024-03-23T10:17:11;4.30;;;1.35;;
58384;SDS011;44185;47.844;8.966;2024-03-23T10:19:38;4.20;;;1.90;;
58384;SDS011;44185;47.844;8.966;2024-03-23T10:22:04;5.35;;;1.58;;
58384;SDS011;44185;47.844;8.966;2024-03-23T10:24:29;6.18;;;1.83;;
58384;SDS011;44185;47.844;8.966;2024-03-23T10:26:55;1.58;;;1.40;;
58384;SDS011;44185;47.844;8.966;2024-03-23T10:29:21;2.75;;;1.58;;
58384;SDS011;44185;47.844;8.966;2024-03-23T10:31:47;3.67;;;1.60;;
58384;SDS011;44185;47.844;8.966;2024-03-23T10:34:12;3.30;;;1.60;;
58384;SDS011;44185;47.844;8.966;2024-03-23T10:36:39;3.83;;;1.73;;
58384;SDS011;44185;47.844;8.966;2024-03-23T10:39:06;2.50;;;1.38;;
58384;SDS011;44185;47.844;8.966;2024-03-23T10:41:32;1.45;;;1.35;;
58384;SDS011;44185;47.844;8.966;2024-03-23T10:43:58;3.28;;;2.00;;
58384;SDS011;44185;47.844;8.966;2024-03-23T10:46:24;4.45;;;2.13;;
58384;SDS011;44185;47.844;8.966;2024-03-23T10:48:49;2.63;;;1.90;;
58384;SDS011;44185;47.844;8.966;2024-03-23T10:51:15;1.90;;;1.42;;
58384;SDS011;44185;47.844;8.966;2024-03-23T10:53:42;6.32;;;2.90;;
58384;SDS011;44185;47.844;8.966;2024-03-23T10:56:07;2.80;;;1.95;;
58384;SDS011;44185;47.844;8.966;2024-03-23T10:58:35;2.53;;;1.50;;
58384;SDS011;44185;47.844;8.966;2024-03-23T11:01:03;3.83;;;1.90;;
58384;SDS011;44185;47.844;8.966;2024-03-23T11:03:29;12.30;;;4.90;;
58384;SDS011;44185;47.844;8.966;2024-03-23T11:05:55;2.47;;;1.55;;
58384;SDS011;44185;47.844;8.966;2024-03-23T11:08:29;1.70;;;1.60;;
58384;SDS011;44185;47.844;8.966;2024-03-23T11:11:02;3.83;;;1.60;;
58384;SDS011;44185;47.844;8.966;2024-03-23T11:13:36;3.95;;;1.83;;
58384;SDS011;44185;47.844;8.966;2024-03-23T11:16:11;3.15;;;1.70;;
58384;SDS011;44185;47.844;8.966;2024-03-23T11:18:38;4.10;;;1.80;;
58384;SDS011;44185;47.844;8.966;2024-03-23T11:21:03;1.98;;;1.33;;
58384;SDS011;44185;47.844;8.966;2024-03-23T11:23:29;5.85;;;2.30;;
58384;SDS011;44185;47.844;8.966;2024-03-23T11:25:54;4.13;;;2.03;;
58384;SDS011;44185;47.844;8.966;2024-03-23T11:28:21;1.80;;;1.17;;
58384;SDS011;44185;47.844;8.966;2024-03-23T11:30:46;4.72;;;1.52;;
58384;SDS011;44185;47.844;8.966;2024-03-23T11:33:12;2.42;;;1.25;;
58384;SDS011;44185;47.844;8.966;2024-03-23T11:35:38;4.43;;;1.38;;
58384;SDS011;44185;47.844;8.966;2024-03-23T11:38:05;2.42;;;1.35;;
58384;SDS011;44185;47.844;8.966;2024-03-23T11:40:31;3.63;;;1.63;;
58384;SDS011;44185;47.844;8.966;2024-03-23T11:42:58;2.72;;;1.42;;
58384;SDS011;44185;47.844;8.966;2024-03-23T11:45:25;4.70;;;1.42;;
58384;SDS011;44185;47.844;8.966;2024-03-23T11:48:01;1.90;;;1.17;;
58384;SDS011;44185;47.844;8.966;2024-03-23T11:50:27;1.85;;;1.20;;
58384;SDS011;44185;47.844;8.966;2024-03-23T11:52:52;5.30;;;1.75;;
58384;SDS011;44185;47.844;8.966;2024-03-23T11:55:18;2.83;;;1.27;;
58384;SDS011;44185;47.844;8.966;2024-03-23T11:57:43;4.07;;;1.50;;
58384;SDS011;44185;47.844;8.966;2024-03-23T12:00:21;1.65;;;1.20;;
58384;SDS011;44185;47.844;8.966;2024-03-23T12:02:48;2.03;;;1.10;;
58384;SDS011;44185;47.844;8.966;2024-03-23T12:05:14;6.03;;;1.55;;
58384;SDS011;44185;47.844;8.966;2024-03-23T12:07:40;5.40;;;1.40;;
58384;SDS011;44185;47.844;8.966;2024-03-23T12:10:06;5.85;;;1.35;;
58384;SDS011;44185;47.844;8.966;2024-03-23T12:12:32;3.78;;;1.63;;
58384;SDS011;44185;47.844;8.966;2024-03-23T12:15:01;2.05;;;1.00;;
58384;SDS011;44185;47.844;8.966;2024-03-23T12:19:54;0.65;;;0.55;;
58384;SDS011;44185;47.844;8.966;2024-03-23T12:22:20;1.88;;;0.85;;
58384;SDS011;44185;47.844;8.966;2024-03-23T12:24:45;0.50;;;0.50;;
58384;SDS011;44185;47.844;8.966;2024-03-23T12:27:11;4.55;;;1.08;;
58384;SDS011;44185;47.844;8.966;2024-03-23T12:29:36;4.38;;;1.80;;
58384;SDS011;44185;47.844;8.966;2024-03-23T12:32:02;2.10;;;0.95;;
58384;SDS011;44185;47.844;8.966;2024-03-23T12:34:28;1.23;;;1.00;;
58384;SDS011;44185;47.844;8.966;2024-03-23T12:36:55;1.20;;;1.08;;
58384;SDS011;44185;47.844;8.966;2024-03-23T12:39:21;1.13;;;0.82;;
58384;SDS011;44185;47.844;8.966;2024-03-23T12:41:46;1.73;;;0.88;;
58384;SDS011;44185;47.844;8.966;2024-03-23T12:44:12;4.28;;;1.80;;
58384;SDS011;44185;47.844;8.966;2024-03-23T12:46:37;4.72;;;1.58;;
58384;SDS011;44185;47.844;8.966;2024-03-23T12:49:03;2.55;;;1.30;;
58384;SDS011;44185;47.844;8.966;2024-03-23T12:51:28;2.00;;;1.40;;
58384;SDS011;44185;47.844;8.966;2024-03-23T12:53:55;2.55;;;1.30;;
58384;SDS011;44185;47.844;8.966;2024-03-23T12:56:21;7.20;;;3.38;;
58384;SDS011;44185;47.844;8.966;2024-03-23T12:58:46;8.30;;;3.20;;
58384;SDS011;44185;47.844;8.966;2024-03-23T13:01:12;3.25;;;1.48;;
58384;SDS011;44185;47.844;8.966;2024-03-23T13:03:37;5.75;;;2.58;;
58384;SDS011;44185;47.844;8.966;2024-03-23T13:06:03;1.77;;;1.20;;
58384;SDS011;44185;47.844;8.966;2024-03-23T13:08:28;4.28;;;1.85;;
58384;SDS011;44185;47.844;8.966;2024-03-23T13:10:55;3.80;;;2.13;;
58384;SDS011;44185;47.844;8.966;2024-03-23T13:13:21;5.25;;;1.70;;
58384;SDS011;44185;47.844;8.966;2024-03-23T13:15:49;5.88;;;2.40;;
58384;SDS011;44185;47.844;8.966;2024-03-23T13:18:14;5.80;;;2.10;;
58384;SDS011;44185;47.844;8.966;2024-03-23T13:20:40;4.20;;;2.40;;
58384;SDS011;44185;47.844;8.966;2024-03-23T13:23:05;2.00;;;1.17;;
58384;SDS011;44185;47.844;8.966;2024-03-23T13:25:31;1.15;;;1.08;;
58384;SDS011;44185;47.844;8.966;2024-03-23T13:27:58;4.60;;;2.50;;
58384;SDS011;44185;47.844;8.966;2024-03-23T13:30:24;3.42;;;1.23;;
58384;SDS011;44185;47.844;8.966;2024-03-23T13:32:49;2.88;;;1.33;;
58384;SDS011;44185;47.844;8.966;2024-03-23T13:35:15;2.85;;;1.20;;
58384;SDS011;44185;47.844;8.966;2024-03-23T13:37:40;3.22;;;1.30;;
58384;SDS011;44185;47.844;8.966;2024-03-23T13:40:06;4.90;;;1.65;;
58384;SDS011;44185;47.844;8.966;2024-03-23T13:42:33;0.98;;;0.98;;
58384;SDS011;44185;47.844;8.966;2024-03-23T13:44:59;1.67;;;1.38;;
58384;SDS011;44185;47.844;8.966;2024-03-23T13:47:25;3.40;;;1.83;;
58384;SDS011;44185;47.844;8.966;2024-03-23T13:49:50;3.47;;;1.50;;
58384;SDS011;44185;47.844;8.966;2024-03-23T13:52:16;2.53;;;1.63;;
58384;SDS011;44185;47.844;8.966;2024-03-23T13:54:42;4.60;;;2.25;;
58384;SDS011;44185;47.844;8.966;2024-03-23T13:57:07;3.25;;;1.60;;
58384;SDS011;44185;47.844;8.966;2024-03-23T13:59:33;2.05;;;1.88;;
58384;SDS011;44185;47.844;8.966;2024-03-23T14:01:59;3.38;;;2.08;;
58384;SDS011;44185;47.844;8.966;2024-03-23T14:04:25;5.32;;;2.13;;
58384;SDS011;44185;47.844;8.966;2024-03-23T14:06:50;1.63;;;1.15;;
58384;SDS011;44185;47.844;8.966;2024-03-23T14:09:16;4.32;;;1.83;;
58384;SDS011;44185;47.844;8.966;2024-03-23T14:11:42;1.75;;;0.80;;
58384;SDS011;44185;47.844;8.966;2024-03-23T14:14:07;11.45;;;3.20;;
58384;SDS011;44185;47.844;8.966;2024-03-23T14:16:33;2.70;;;1.70;;
58384;SDS011;44185;47.844;8.966;2024-03-23T14:18:59;3.80;;;1.95;;
58384;SDS011;44185;47.844;8.966;2024-03-23T14:21:25;1.23;;;0.95;;
58384;SDS011;44185;47.844;8.966;2024-03-23T14:23:51;2.42;;;0.70;;
58384;SDS011;44185;47.844;8.966;2024-03-23T14:26:16;1.67;;;0.82;;
58384;SDS011;44185;47.844;8.966;2024-03-23T14:28:42;2.55;;;0.82;;
58384;SDS011;44185;47.844;8.966;2024-03-23T14:31:07;2.08;;;0.95;;
58384;SDS011;44185;47.844;8.966;2024-03-23T14:33:33;2.70;;;0.98;;
58384;SDS011;44185;47.844;8.966;2024-03-23T14:35:59;7.57;;;2.75;;
58384;SDS011;44185;47.844;8.966;2024-03-23T14:38:25;1.52;;;1.42;;
58384;SDS011;44185;47.844;8.966;2024-03-23T14:40:50;8.63;;;3.03;;
58384;SDS011;44185;47.844;8.966;2024-03-23T14:43:16;8.27;;;2.30;;
58384;SDS011;44185;47.844;8.966;2024-03-23T14:45:48;1.20;;;1.08;;
58384;SDS011;44185;47.844;8.966;2024-03-23T14:48:31;1.80;;;0.93;;
58384;SDS011;44185;47.844;8.966;2024-03-23T14:50:57;3.35;;;1.17;;
58384;SDS011;44185;47.844;8.966;2024-03-23T14:53:23;3.95;;;1.70;;
58384;SDS011;44185;47.844;8.966;2024-03-23T14:55:49;5.25;;;2.03;;
58384;SDS011;44185;47.844;8.966;2024-03-23T14:58:14;3.75;;;1.50;;
58384;SDS011;44185;47.844;8.966;2024-03-23T15:00:40;3.13;;;1.70;;
58384;SDS011;44185;47.844;8.966;2024-03-23T15:03:05;2.83;;;1.30;;
58384;SDS011;44185;47.844;8.966;2024-03-23T15:05:31;5.90;;;1.23;;
58384;SDS011;44185;47.844;8.966;2024-03-23T15:07:57;4.00;;;1.15;;
58384;SDS011;44185;47.844;8.966;2024-03-23T15:10:24;2.80;;;0.95;;
58384;SDS011;44185;47.844;8.966;2024-03-23T15:12:49;1.50;;;0.80;;
58384;SDS011;44185;47.844;8.966;2024-03-23T15:15:14;2.70;;;1.83;;
58384;SDS011;44185;47.844;8.966;2024-03-23T15:17:40;2.60;;;1.13;;
58384;SDS011;44185;47.844;8.966;2024-03-23T15:20:06;4.05;;;1.25;;
58384;SDS011;44185;47.844;8.966;2024-03-23T15:22:32;3.50;;;1.20;;
58384;SDS011;44185;47.844;8.966;2024-03-23T15:24:57;4.07;;;1.05;;
58384;SDS011;44185;47.844;8.966;2024-03-23T15:27:24;4.05;;;1.48;;
58384;SDS011;44185;47.844;8.966;2024-03-23T15:29:49;1.23;;;0.63;;
58384;SDS011;44185;47.844;8.966;2024-03-23T15:32:15;5.05;;;1.23;;
58384;SDS011;44185;47.844;8.966;2024-03-23T15:34:40;2.67;;;1.00;;